Time;durP1;ratioP1;P1;durP2;ratioP2;P2;SDS_P1;SDS_P2;PMS_P1;PMS_P2;Temp;Humidity;BMP_temperature;BMP_pressure;BME280_temperature;BME280_humidity;BME280_pressure;Samples;Min_cycle;Max_cycle;Signal;HPM_P1;HPM_P2
2022/10/13 00:00:15;;;;;;;;;;;;;;;13.71;66.77;100387.25;4466179;32;35306;-89
2022/10/13 00:02:46;;;;;;;;;;;;;;;13.55;67.05;100382.22;4473716;32;34285;-92
2022/10/13 00:05:23;;;;;;;;;;;;;;;13.50;67.43;100385.78;4469267;32;33909;-87
2022/10/13 00:07:55;;;;;;;;;;;;;;;13.65;66.75;100382.97;4450163;32;32239;-90
2022/10/13 00:10:24;;;;;;;;;;;;;;;13.70;66.34;100382.91;4448324;32;33016;-88
2022/10/13 00:12:53;;;;;;;;;;;;;;;13.71;65.96;100377.66;4462321;32;34099;-88
2022/10/13 00:15:26;;;;;;;;;;;;;;;13.62;65.96;100376.03;4468119;32;34329;-92
2022/10/13 00:17:56;;;;;;;;;;;;;;;13.62;66.04;100378.66;4467478;32;34513;-91
2022/10/13 00:20:27;;;;;;;;;;;;;;;13.55;66.23;100376.16;4462788;32;34947;-92
2022/10/13 00:22:58;;;;;;;;;;;;;;;13.52;66.37;100373.59;4462379;32;32960;-90
2022/10/13 00:25:27;;;;;;;;;;;;;;;13.39;66.72;100375.53;4463098;32;32979;-90
2022/10/13 00:27:58;;;;;;;;;;;;;;;13.44;66.67;100377.19;4453584;32;34207;-90
2022/10/13 00:30:33;;;;;;;;;;;;;;;13.47;66.43;100378.88;4461866;32;33475;-89
2022/10/13 00:33:02;;;;;;;;;;;;;;;13.41;66.55;100379.84;4448048;32;33184;-92
2022/10/13 00:35:33;;;;;;;;;;;;;;;13.44;66.51;100381.53;4465233;32;33873;-88
2022/10/13 00:38:05;;;;;;;;;;;;;;;13.26;67.11;100380.00;4467628;32;33263;-90
2022/10/13 00:40:34;;;;;;;;;;;;;;;13.15;67.71;100381.91;4453207;32;33328;-91
2022/10/13 00:43:03;;;;;;;;;;;;;;;13.23;67.43;100380.91;4461043;32;34263;-89
2022/10/13 00:45:35;;;;;;;;;;;;;;;13.36;66.71;100381.66;4463994;32;33449;-90
2022/10/13 00:48:04;;;;;;;;;;;;;;;13.24;67.12;100381.78;4455040;32;33878;-89
2022/10/13 00:50:35;;;;;;;;;;;;;;;13.29;66.43;100379.13;4478406;32;33927;-88
2022/10/13 00:53:08;;;;;;;;;;;;;;;13.29;66.35;100371.31;4463416;32;33754;-89
2022/10/13 00:55:37;;;;;;;;;;;;;;;13.13;67.06;100376.69;4458757;32;33194;-89
2022/10/13 00:58:06;;;;;;;;;;;;;;;13.08;67.24;100377.66;4462728;32;33418;-89
2022/10/13 01:00:41;;;;;;;;;;;;;;;13.09;66.99;100372.41;4465983;32;34680;-90
2022/10/13 01:03:22;;;;;;;;;;;;;;;13.06;67.13;100372.44;4475143;32;35208;-91
2022/10/13 01:05:56;;;;;;;;;;;;;;;13.11;66.76;100368.03;4475100;32;32909;-89
2022/10/13 01:08:25;;;;;;;;;;;;;;;13.01;67.23;100371.66;4461955;32;34207;-90
2022/10/13 01:11:00;;;;;;;;;;;;;;;12.97;67.16;100368.19;4453590;32;32659;-90
2022/10/13 01:13:31;;;;;;;;;;;;;;;12.93;67.36;100363.06;4471380;32;33785;-90
2022/10/13 01:16:06;;;;;;;;;;;;;;;13.10;66.90;100362.87;4452976;32;31958;-92
2022/10/13 01:18:38;;;;;;;;;;;;;;;13.15;66.61;100372.34;4474666;32;33484;-94
2022/10/13 01:21:10;;;;;;;;;;;;;;;12.97;67.59;100377.75;4477331;32;35270;-88
2022/10/13 01:23:48;;;;;;;;;;;;;;;12.98;67.83;100382.09;4462706;32;34282;-88
2022/10/13 01:26:25;;;;;;;;;;;;;;;13.12;67.23;100374.09;4467378;32;32742;-90
2022/10/13 01:29:01;;;;;;;;;;;;;;;13.04;67.58;100371.59;4452839;32;33433;-93
2022/10/13 01:31:32;;;;;;;;;;;;;;;12.89;68.16;100379.59;4460048;32;32659;-89
2022/10/13 01:34:02;;;;;;;;;;;;;;;12.90;68.22;100376.09;4477241;32;33734;-89
2022/10/13 01:36:36;;;;;;;;;;;;;;;12.89;67.99;100366.59;4479078;32;33090;-89
2022/10/13 01:39:08;;;;;;;;;;;;;;;13.02;67.69;100356.00;4468507;32;32505;-89
2022/10/13 01:41:37;;;;;;;;;;;;;;;12.93;68.20;100370.88;4474576;32;33974;-89
2022/10/13 01:44:08;;;;;;;;;;;;;;;12.81;68.53;100367.53;4463117;32;35641;-91
2022/10/13 01:46:38;;;;;;;;;;;;;;;12.66;69.09;100370.31;4461865;32;32887;-88
2022/10/13 01:49:10;;;;;;;;;;;;;;;12.83;68.63;100362.31;4467016;32;33172;-92
2022/10/13 01:51:39;;;;;;;;;;;;;;;12.90;68.14;100357.88;4483944;32;34049;-92
2022/10/13 01:54:13;;;;;;;;;;;;;;;12.84;68.41;100363.19;4463838;32;33358;-90
2022/10/13 01:56:41;;;;;;;;;;;;;;;12.78;68.49;100362.37;4475114;32;33369;-90
2022/10/13 01:59:11;;;;;;;;;;;;;;;12.90;68.13;100355.28;4468398;32;33754;-89
2022/10/13 02:01:47;;;;;;;;;;;;;;;12.90;68.23;100352.66;4471404;32;33890;-88
2022/10/13 02:04:23;;;;;;;;;;;;;;;12.98;68.03;100350.84;4467344;32;33406;-88
2022/10/13 02:06:55;;;;;;;;;;;;;;;12.97;67.92;100351.72;4468379;32;32843;-91
2022/10/13 02:09:27;;;;;;;;;;;;;;;13.01;68.04;100348.19;4474025;32;34121;-88
2022/10/13 02:11:57;;;;;;;;;;;;;;;12.90;68.36;100345.75;4450662;32;33803;-89
2022/10/13 02:14:30;;;;;;;;;;;;;;;12.94;68.21;100347.41;4469037;32;34031;-88
2022/10/13 02:17:04;;;;;;;;;;;;;;;13.01;68.18;100356.00;4476932;32;33277;-89
2022/10/13 02:19:35;;;;;;;;;;;;;;;12.98;68.36;100350.84;4465790;32;34080;-92
2022/10/13 02:22:11;;;;;;;;;;;;;;;12.99;68.02;100356.03;4472337;32;34761;-88
2022/10/13 02:24:47;;;;;;;;;;;;;;;12.93;68.31;100353.50;4479002;32;33729;-89
2022/10/13 02:27:16;;;;;;;;;;;;;;;12.89;68.20;100357.03;4484813;32;32830;-90
2022/10/13 02:29:49;;;;;;;;;;;;;;;12.85;68.69;100359.69;4465390;32;33807;-89
2022/10/13 02:32:20;;;;;;;;;;;;;;;12.80;68.59;100357.12;4479081;32;33845;-88
2022/10/13 02:34:53;;;;;;;;;;;;;;;12.81;68.59;100357.12;4479391;32;33463;-92
2022/10/13 02:37:24;;;;;;;;;;;;;;;12.80;69.09;100357.97;4479397;32;33986;-89
2022/10/13 02:39:53;;;;;;;;;;;;;;;13.02;68.10;100353.41;4470276;32;33498;-88
2022/10/13 02:42:22;;;;;;;;;;;;;;;13.03;67.71;100352.50;4478404;32;35359;-89
2022/10/13 02:44:55;;;;;;;;;;;;;;;13.01;67.67;100349.06;4479830;32;34558;-90
2022/10/13 02:47:26;;;;;;;;;;;;;;;13.11;67.06;100344.59;4480984;32;33970;-89
2022/10/13 02:49:56;;;;;;;;;;;;;;;12.52;69.42;100346.19;4484482;32;34343;-93
2022/10/13 02:52:25;;;;;;;;;;;;;;;12.72;68.38;100346.81;4475865;32;34317;-89
2022/10/13 02:55:01;;;;;;;;;;;;;;;12.83;67.91;100346.69;4478330;32;33100;-89
2022/10/13 02:57:32;;;;;;;;;;;;;;;12.91;67.54;100349.19;4466456;32;33300;-88
2022/10/13 03:00:04;;;;;;;;;;;;;;;12.87;67.36;100350.97;4462090;32;34091;-92
2022/10/13 03:02:37;;;;;;;;;;;;;;;12.82;67.47;100348.41;4468067;32;34083;-90
2022/10/13 03:05:06;;;;;;;;;;;;;;;12.73;67.73;100348.53;4464058;32;33138;-90
2022/10/13 03:07:35;;;;;;;;;;;;;;;12.61;68.30;100353.84;4450152;32;31143;-88
2022/10/13 03:10:08;;;;;;;;;;;;;;;12.79;67.10;100348.47;4470849;32;34071;-90
2022/10/13 03:12:39;;;;;;;;;;;;;;;12.75;67.25;100351.12;4448719;32;33995;-88
2022/10/13 03:15:08;;;;;;;;;;;;;;;12.79;66.92;100352.81;4467334;32;33825;-90
2022/10/13 03:17:44;;;;;;;;;;;;;;;12.75;66.88;100351.97;4463110;32;33602;-90
2022/10/13 03:20:13;;;;;;;;;;;;;;;12.84;66.58;100348.41;4447970;32;33533;-89
2022/10/13 03:22:43;;;;;;;;;;;;;;;12.60;67.41;100350.41;4449693;32;32619;-89
2022/10/13 03:25:20;;;;;;;;;;;;;;;12.52;67.77;100348.78;4476707;32;33171;-92
2022/10/13 03:27:52;;;;;;;;;;;;;;;12.48;67.70;100347.94;4455717;32;32811;-89
2022/10/13 03:30:22;;;;;;;;;;;;;;;12.52;67.42;100348.78;4462209;32;33335;-88
2022/10/13 03:32:55;;;;;;;;;;;;;;;12.52;67.08;100344.44;4466749;32;33351;-91
2022/10/13 03:35:24;;;;;;;;;;;;;;;12.46;67.41;100347.09;4472732;32;34004;-91
2022/10/13 03:37:53;;;;;;;;;;;;;;;12.44;67.76;100342.78;4467870;32;33148;-89
2022/10/13 03:40:27;;;;;;;;;;;;;;;12.50;67.41;100345.31;4472841;32;33898;-88
2022/10/13 03:42:57;;;;;;;;;;;;;;;12.46;67.58;100341.87;4475514;32;35142;-96
2022/10/13 03:45:26;;;;;;;;;;;;;;;12.50;67.35;100340.97;4466581;32;34183;-90
2022/10/13 03:47:59;;;;;;;;;;;;;;;12.55;66.92;100340.94;4464182;32;33574;-91
2022/10/13 03:50:29;;;;;;;;;;;;;;;12.46;67.70;100338.41;4455857;32;32708;-89
2022/10/13 03:52:58;;;;;;;;;;;;;;;12.45;67.87;100341.91;4453887;32;33076;-91
2022/10/13 03:55:27;;;;;;;;;;;;;;;12.61;66.92;100338.25;4470868;32;34666;-90
2022/10/13 03:58:05;;;;;;;;;;;;;;;12.57;66.72;100333.97;4470347;32;33712;-88
2022/10/13 04:00:35;;;;;;;;;;;;;;;12.51;66.52;100340.09;4470204;32;33272;-89
2022/10/13 04:03:05;;;;;;;;;;;;;;;12.39;67.02;100348.03;4463423;32;34958;-88
2022/10/13 04:05:37;;;;;;;;;;;;;;;12.26;67.76;100334.28;4464843;32;34754;-87
2022/10/13 04:08:06;;;;;;;;;;;;;;;12.47;66.77;100329.75;4474315;32;32966;-89
2022/10/13 04:10:35;;;;;;;;;;;;;;;12.28;67.36;100332.53;4463555;32;34157;-90
2022/10/13 04:13:04;;;;;;;;;;;;;;;12.38;66.82;100338.50;4459785;32;33288;-89
2022/10/13 04:15:45;;;;;;;;;;;;;;;12.36;66.57;100333.31;4464257;32;33502;-90
2022/10/13 04:18:23;;;;;;;;;;;;;;;12.24;66.82;100338.63;4470090;32;32889;-88
2022/10/13 04:20:52;;;;;;;;;;;;;;;12.35;66.13;100331.59;4470973;32;33742;-91
2022/10/13 04:23:20;;;;;;;;;;;;;;;12.36;65.85;100332.44;4465008;32;33828;-91
2022/10/13 04:25:50;;;;;;;;;;;;;;;12.12;66.86;100328.34;4468039;32;33696;-90
2022/10/13 04:28:21;;;;;;;;;;;;;;;12.25;66.21;100323.88;4466957;32;32796;-89
2022/10/13 04:30:51;;;;;;;;;;;;;;;12.21;66.01;100327.41;4467534;32;33226;-92
2022/10/13 04:33:27;;;;;;;;;;;;;;;12.24;65.87;100335.19;4478094;32;34722;-93
2022/10/13 04:35:55;;;;;;;;;;;;;;;11.97;66.52;100336.31;4469198;32;33382;-92
2022/10/13 04:38:26;;;;;;;;;;;;;;;11.85;67.18;100339.81;4479399;32;33965;-89
2022/10/13 04:40:54;;;;;;;;;;;;;;;11.89;66.72;100326.81;4467430;32;33985;-88
2022/10/13 04:43:28;;;;;;;;;;;;;;;11.80;67.41;100333.81;4457918;32;33274;-89
2022/10/13 04:46:02;;;;;;;;;;;;;;;12.02;66.49;100334.50;4452957;32;33049;-90
2022/10/13 04:48:38;;;;;;;;;;;;;;;11.97;66.57;100336.31;4462517;32;32062;-88
2022/10/13 04:51:11;;;;;;;;;;;;;;;11.93;66.29;100332.84;4460274;32;32823;-88
2022/10/13 04:53:40;;;;;;;;;;;;;;;11.69;67.33;100334.75;4457894;32;35070;-88
2022/10/13 04:56:12;;;;;;;;;;;;;;;11.49;67.90;100340.06;4474425;32;33166;-89
2022/10/13 04:58:41;;;;;;;;;;;;;;;11.42;68.01;100342.72;4467158;32;32946;-91
2022/10/13 05:01:12;;;;;;;;;;;;;;;11.37;68.43;100337.56;4480968;32;33858;-93
2022/10/13 05:03:52;;;;;;;;;;;;;;;11.46;67.86;100331.44;4477872;32;33499;-88
2022/10/13 05:06:25;;;;;;;;;;;;;;;11.36;68.02;100329.78;4479473;32;33135;-88
2022/10/13 05:08:56;;;;;;;;;;;;;;;11.53;67.52;100333.13;4464637;32;33596;-89
2022/10/13 05:11:26;;;;;;;;;;;;;;;11.57;67.27;100336.56;4474131;32;34081;-92
2022/10/13 05:13:55;;;;;;;;;;;;;;;11.60;67.09;100337.41;4475223;32;34019;-90
2022/10/13 05:16:27;;;;;;;;;;;;;;;11.45;67.92;100327.09;4463205;32;33467;-88
2022/10/13 05:19:01;;;;;;;;;;;;;;;11.54;67.77;100335.69;4461939;32;33136;-89
2022/10/13 05:21:30;;;;;;;;;;;;;;;11.57;67.78;100327.03;4475361;32;33694;-91
2022/10/13 05:24:05;;;;;;;;;;;;;;;11.67;67.69;100330.41;4472739;32;34736;-90
2022/10/13 05:26:37;;;;;;;;;;;;;;;11.47;68.83;100333.16;4470427;32;33186;-87
2022/10/13 05:29:09;;;;;;;;;;;;;;;11.55;68.83;100331.38;4474963;32;33817;-89
2022/10/13 05:31:45;;;;;;;;;;;;;;;11.75;68.04;100332.09;4465250;32;33768;-87
2022/10/13 05:34:15;;;;;;;;;;;;;;;11.74;68.18;100337.28;4455203;32;32931;-88
2022/10/13 05:36:47;;;;;;;;;;;;;;;11.78;68.29;100339.00;4484395;32;33685;-90
2022/10/13 05:39:15;;;;;;;;;;;;;;;11.83;68.23;100337.22;4463465;32;30103;-88
2022/10/13 05:41:51;;;;;;;;;;;;;;;11.85;68.46;100338.09;4448647;32;32289;-89
2022/10/13 05:44:20;;;;;;;;;;;;;;;11.86;68.42;100336.34;4454823;32;33270;-94
2022/10/13 05:46:53;;;;;;;;;;;;;;;12.00;68.21;100342.31;4461990;32;33486;-90
2022/10/13 05:49:23;;;;;;;;;;;;;;;12.00;67.98;100339.72;4469065;32;33240;-89
2022/10/13 05:51:58;;;;;;;;;;;;;;;12.11;67.96;100339.63;4463566;32;34357;-90
2022/10/13 05:54:28;;;;;;;;;;;;;;;12.02;68.54;100342.31;4449196;32;32555;-92
2022/10/13 05:57:00;;;;;;;;;;;;;;;12.20;67.79;100349.94;4466242;32;35121;-92
2022/10/13 05:59:31;;;;;;;;;;;;;;;12.25;67.58;100345.56;4468865;32;34046;-89
2022/10/13 06:02:05;;;;;;;;;;;;;;;12.37;66.58;100345.47;4450444;32;32692;-88
2022/10/13 06:04:36;;;;;;;;;;;;;;;12.19;67.36;100349.97;4449502;32;33619;-89
2022/10/13 06:07:05;;;;;;;;;;;;;;;12.12;67.54;100350.00;4463325;32;34035;-91
2022/10/13 06:09:36;;;;;;;;;;;;;;;12.11;68.08;100360.44;4468414;32;32961;-92
2022/10/13 06:12:05;;;;;;;;;;;;;;;12.29;67.02;100362.00;4479172;32;33686;-89
2022/10/13 06:14:34;;;;;;;;;;;;;;;12.16;67.86;100363.88;4468518;32;33656;-92
2022/10/13 06:17:07;;;;;;;;;;;;;;;12.27;67.84;100363.75;4463086;32;34054;-90
2022/10/13 06:19:41;;;;;;;;;;;;;;;12.30;67.89;100367.22;4478200;32;32306;-91
2022/10/13 06:22:09;;;;;;;;;;;;;;;12.25;68.50;100370.72;4484784;32;34044;-89
2022/10/13 06:24:43;;;;;;;;;;;;;;;12.24;68.71;100369.84;4483572;32;34692;-89
2022/10/13 06:27:12;;;;;;;;;;;;;;;12.23;69.14;100369.88;4482651;32;34675;-91
2022/10/13 06:29:44;;;;;;;;;;;;;;;12.42;68.61;100373.16;4455459;32;32333;-89
2022/10/13 06:32:12;;;;;;;;;;;;;;;12.53;68.45;100369.56;4479491;32;33864;-90
2022/10/13 06:34:45;;;;;;;;;;;;;;;12.89;67.53;100359.63;4484546;32;33591;-90
2022/10/13 06:37:14;;;;;;;;;;;;;;;12.58;68.49;100369.53;4483220;32;33733;-89
2022/10/13 06:39:46;;;;;;;;;;;;;;;12.58;68.78;100365.16;4479237;32;33703;-88
2022/10/13 06:42:15;;;;;;;;;;;;;;;12.77;68.74;100368.44;4478986;32;33487;-92
2022/10/13 06:44:48;;;;;;;;;;;;;;;12.79;68.81;100371.91;4475277;32;34174;-89
2022/10/13 06:47:16;;;;;;;;;;;;;;;13.27;67.16;100371.34;4469365;32;35008;-89
2022/10/13 06:49:54;;;;;;;;;;;;;;;13.05;68.19;100368.12;4449065;32;32532;-89
2022/10/13 06:52:23;;;;;;;;;;;;;;;13.20;67.80;100367.06;4463318;32;34683;-91
2022/10/13 06:54:59;;;;;;;;;;;;;;;13.07;68.50;100366.37;4464978;32;33950;-89
2022/10/13 06:57:33;;;;;;;;;;;;;;;13.39;67.62;100375.53;4457261;32;32342;-91
2022/10/13 07:00:05;;;;;;;;;;;;;;;13.41;67.75;100364.22;4469000;32;33034;-89
2022/10/13 07:02:34;;;;;;;;;;;;;;;13.40;68.39;100366.81;4463317;32;34519;-91
2022/10/13 07:05:05;;;;;;;;;;;;;;;13.41;68.87;100365.97;4463165;32;33642;-90
2022/10/13 07:07:37;;;;;;;;;;;;;;;13.70;68.47;100362.91;4470589;32;33491;-87
2022/10/13 07:10:06;;;;;;;;;;;;;;;13.59;69.38;100360.47;4482999;32;33371;-89
2022/10/13 07:12:37;;;;;;;;;;;;;;;14.01;67.88;100370.25;4480172;32;34117;-93
2022/10/13 07:15:07;;;;;;;;;;;;;;;14.03;68.15;100366.72;4465839;32;33178;-93
2022/10/13 07:17:39;;;;;;;;;;;;;;;14.04;68.05;100370.22;4470683;32;33051;-88
2022/10/13 07:20:10;;;;;;;;;;;;;;;13.99;68.06;100365.06;4466067;32;34021;-92
2022/10/13 07:22:40;;;;;;;;;;;;;;;14.24;66.46;100364.66;4471321;32;34319;-90
2022/10/13 07:25:09;;;;;;;;;;;;;;;14.37;66.18;100358.31;4479228;32;34672;-90
2022/10/13 07:27:44;;;;;;;;;;;;;;;14.74;64.96;100360.28;4482219;32;33944;-90
2022/10/13 07:30:13;;;;;;;;;;;;;;;14.34;66.86;100358.38;4481457;32;33152;-93
2022/10/13 07:32:43;;;;;;;;;;;;;;;14.60;66.08;100368.38;4484795;32;34586;-90
2022/10/13 07:35:13;;;;;;;;;;;;;;;14.74;64.66;100368.12;4481367;32;34401;-89
2022/10/13 07:37:46;;;;;;;;;;;;;;;14.82;63.12;100363.59;4464213;32;33065;-90
2022/10/13 07:40:15;;;;;;;;;;;;;;;14.66;63.21;100370.00;4454055;32;33468;-95
2022/10/13 07:42:46;;;;;;;;;;;;;;;14.68;63.65;100369.06;4463709;32;33268;-90
2022/10/13 07:45:15;;;;;;;;;;;;;;;14.47;63.84;100372.06;4469091;32;33963;-92
2022/10/13 07:47:44;;;;;;;;;;;;;;;14.70;62.76;100363.84;4449571;32;33699;-94
2022/10/13 07:50:15;;;;;;;;;;;;;;;14.78;62.15;100374.97;4466062;32;32581;-91
2022/10/13 07:52:48;;;;;;;;;;;;;;;14.89;62.64;100373.03;4449317;32;35287;-92
2022/10/13 07:55:17;;;;;;;;;;;;;;;15.19;62.02;100364.59;4453964;32;35235;-90
2022/10/13 07:57:49;;;;;;;;;;;;;;;15.38;61.07;100365.06;4452570;32;33459;-93
2022/10/13 08:00:19;;;;;;;;;;;;;;;15.31;61.19;100367.78;4449355;32;32146;-93
2022/10/13 08:02:51;;;;;;;;;;;;;;;15.21;61.37;100361.03;4450609;32;32269;-90
2022/10/13 08:05:21;;;;;;;;;;;;;;;15.22;61.23;100364.50;4452976;32;33190;-89
2022/10/13 08:07:53;;;;;;;;;;;;;;;15.46;59.93;100363.97;4454979;32;34195;-95
2022/10/13 08:10:28;;;;;;;;;;;;;;;15.52;59.70;100360.38;4466067;32;33355;-89
2022/10/13 08:13:07;;;;;;;;;;;;;;;15.28;60.93;100362.63;4449414;32;32789;-89
2022/10/13 08:15:37;;;;;;;;;;;;;;;15.62;59.45;100359.25;4449391;32;32994;-88
2022/10/13 08:18:06;;;;;;;;;;;;;;;15.45;59.54;100357.03;4465115;32;34574;-88
2022/10/13 08:20:46;;;;;;;;;;;;;;;15.46;59.50;100352.66;4468233;32;32421;-90
2022/10/13 08:23:20;;;;;;;;;;;;;;;15.73;57.84;100344.22;4449792;32;35322;-92
2022/10/13 08:25:50;;;;;;;;;;;;;;;16.09;56.15;100351.19;4463623;32;34438;-88
2022/10/13 08:28:24;;;;;;;;;;;;;;;15.84;57.87;100343.09;4464456;32;35169;-88
2022/10/13 08:30:54;;;;;;;;;;;;;;;15.96;56.95;100341.03;4471476;32;33136;-89
2022/10/13 08:33:23;;;;;;;;;;;;;;;15.48;57.75;100335.19;4484466;32;34376;-88
2022/10/13 08:35:53;;;;;;;;;;;;;;;15.88;57.12;100344.75;4466577;32;34981;-91
2022/10/13 08:38:24;;;;;;;;;;;;;;;15.85;56.91;100339.56;4449073;32;34734;-89
2022/10/13 08:40:53;;;;;;;;;;;;;;;16.00;55.90;100336.59;4450749;32;32808;-89
2022/10/13 08:43:25;;;;;;;;;;;;;;;16.02;55.35;100337.41;4454043;32;35043;-92
2022/10/13 08:45:56;;;;;;;;;;;;;;;16.02;56.14;100341.75;4463636;32;35154;-93
2022/10/13 08:48:28;;;;;;;;;;;;;;;16.33;54.22;100337.47;4450396;32;33699;-89
2022/10/13 08:50:59;;;;;;;;;;;;;;;16.01;55.22;100330.44;4462825;32;34194;-91
2022/10/13 08:53:31;;;;;;;;;;;;;;;16.39;53.75;100326.81;4464284;32;34099;-90
2022/10/13 08:56:01;;;;;;;;;;;;;;;16.31;53.30;100327.91;4467905;32;34740;-89
2022/10/13 08:58:51;;;;;;;;;;;;;;;16.40;53.27;100323.28;4452640;32;35487;-90
2022/10/13 09:01:22;;;;;;;;;;;;;;;16.25;54.13;100328.09;4466370;32;33096;-92
2022/10/13 09:03:52;;;;;;;;;;;;;;;16.20;54.63;100322.97;4466473;32;36099;-94
2022/10/13 09:09:07;;;;;;;;;;;;;;;16.56;52.81;100325.50;4455844;32;33568;-89
2022/10/13 09:11:38;;;;;;;;;;;;;;;16.62;53.28;100326.22;4462524;32;32486;-91
2022/10/13 09:14:07;;;;;;;;;;;;;;;16.61;53.41;100316.62;4468978;32;36540;-89
2022/10/13 09:16:41;;;;;;;;;;;;;;;16.47;54.25;100318.75;4467272;32;34052;-89
2022/10/13 09:19:15;;;;;;;;;;;;;;;16.59;52.68;100313.19;4483594;32;33750;-92
2022/10/13 09:21:54;;;;;;;;;;;;;;;16.67;52.93;100319.97;4472994;32;33407;-91
2022/10/13 09:24:24;;;;;;;;;;;;;;;16.93;52.22;100312.25;4467260;32;33500;-90
2022/10/13 09:27:05;;;;;;;;;;;;;;;17.05;51.29;100306.62;4472726;32;35237;-89
2022/10/13 09:29:36;;;;;;;;;;;;;;;16.96;51.57;100311.28;4476321;32;34695;-88
2022/10/13 09:32:13;;;;;;;;;;;;;;;17.00;51.98;100313.78;4456001;32;33048;-91
2022/10/13 09:34:51;;;;;;;;;;;;;;;17.04;51.89;100311.94;4478726;32;35131;-90
2022/10/13 09:37:23;;;;;;;;;;;;;;;17.18;51.75;100308.88;4462119;32;34558;-89
2022/10/13 09:40:01;;;;;;;;;;;;;;;17.54;50.75;100306.03;4465855;32;35052;-93
2022/10/13 09:42:34;;;;;;;;;;;;;;;17.52;51.24;100308.72;4448595;32;33016;-90
2022/10/13 09:45:14;;;;;;;;;;;;;;;17.61;50.75;100310.16;4450169;32;34820;-94
2022/10/13 09:47:49;;;;;;;;;;;;;;;17.49;52.04;100304.44;4465806;32;35166;-90
2022/10/13 09:50:31;;;;;;;;;;;;;;;17.68;51.04;100306.44;4462257;32;36366;-92
2022/10/13 09:53:24;;;;;;;;;;;;;;;17.79;50.55;100300.84;4452676;32;34308;-90
2022/10/13 09:56:10;;;;;;;;;;;;;;;18.05;50.88;100297.34;4452571;32;34971;-90
2022/10/13 09:58:48;;;;;;;;;;;;;;;17.87;50.59;100297.06;4463071;32;34314;-90
2022/10/13 10:01:31;;;;;;;;;;;;;;;18.10;50.55;100303.34;4450945;32;32576;-93
2022/10/13 10:04:19;;;;;;;;;;;;;;;18.01;51.37;100303.62;4451749;32;34154;-91
2022/10/13 10:06:55;;;;;;;;;;;;;;;18.14;49.65;100299.66;4455643;32;34406;-91
2022/10/13 10:09:36;;;;;;;;;;;;;;;18.09;50.05;100301.59;4454915;32;34201;-92
2022/10/13 10:15:08;;;;;;;;;;;;;;;18.35;48.72;100290.19;4451169;32;32557;-91
2022/10/13 10:17:44;;;;;;;;;;;;;;;18.06;48.36;100293.84;4453296;32;34143;-90
2022/10/13 10:23:26;;;;;;;;;;;;;;;18.39;48.22;100286.56;4454473;32;35093;-91
2022/10/13 10:26:17;;;;;;;;;;;;;;;18.33;48.50;100276.25;4459138;32;34232;-92
2022/10/13 10:29:31;;;;;;;;;;;;;;;18.30;48.67;100279.84;4455927;32;34330;-93
2022/10/13 10:32:34;;;;;;;;;;;;;;;18.84;47.98;100279.66;4453806;32;36584;-91
2022/10/13 10:35:41;;;;;;;;;;;;;;;18.56;48.88;100267.53;4450633;32;34007;-91
2022/10/13 10:38:24;;;;;;;;;;;;;;;18.61;48.96;100270.84;4470987;32;34382;-91
2022/10/13 10:40:56;;;;;;;;;;;;;;;18.44;49.57;100263.59;4469810;32;35324;-89
2022/10/13 10:43:47;;;;;;;;;;;;;;;18.71;49.04;100269.59;4474335;32;33456;-90
2022/10/13 10:46:20;;;;;;;;;;;;;;;18.97;48.66;100262.53;4471634;32;34056;-90
2022/10/13 10:48:52;;;;;;;;;;;;;;;18.94;47.70;100260.00;4460307;32;34446;-89
2022/10/13 10:51:31;;;;;;;;;;;;;;;18.87;48.57;100253.25;4471333;32;34732;-90
2022/10/13 10:54:13;;;;;;;;;;;;;;;18.95;48.44;100248.59;4470063;32;33547;-88
2022/10/13 10:56:45;;;;;;;;;;;;;;;19.14;48.91;100244.31;4469473;32;34216;-90
2022/10/13 10:59:39;;;;;;;;;;;;;;;19.37;49.07;100246.00;4465721;32;34420;-88
2022/10/13 11:02:14;;;;;;;;;;;;;;;19.30;49.15;100238.41;4452165;32;34494;-90
2022/10/13 11:04:59;;;;;;;;;;;;;;;19.30;49.88;100235.78;4458078;32;34810;-88
2022/10/13 11:07:59;;;;;;;;;;;;;;;19.29;48.17;100229.69;4465261;32;35259;-90
2022/10/13 11:10:28;;;;;;;;;;;;;;;19.27;48.91;100230.66;4468798;32;33938;-93
2022/10/13 11:13:17;;;;;;;;;;;;;;;19.39;48.94;100224.91;4455080;32;35333;-89
2022/10/13 11:15:52;;;;;;;;;;;;;;;19.29;49.73;100223.56;4453618;32;35525;-88
2022/10/13 11:18:46;;;;;;;;;;;;;;;19.31;48.66;100219.97;4469264;32;34381;-91
2022/10/13 11:21:18;;;;;;;;;;;;;;;19.46;48.64;100222.88;4467823;32;33874;-90
2022/10/13 11:23:48;;;;;;;;;;;;;;;19.49;49.50;100209.59;4458950;32;34691;-91
2022/10/13 11:26:35;;;;;;;;;;;;;;;19.51;49.05;100205.97;4469927;32;34245;-89
2022/10/13 11:29:04;;;;;;;;;;;;;;;19.37;48.68;100210.94;4455977;32;34223;-94
2022/10/13 11:31:52;;;;;;;;;;;;;;;19.70;47.70;100206.09;4453594;32;35256;-89
2022/10/13 11:34:36;;;;;;;;;;;;;;;19.76;48.48;100202.31;4452697;32;35157;-90
2022/10/13 11:37:11;;;;;;;;;;;;;;;19.58;48.29;100203.94;4472314;32;34869;-88
2022/10/13 11:40:09;;;;;;;;;;;;;;;19.77;47.74;100194.38;4458403;32;34363;-88
2022/10/13 11:42:54;;;;;;;;;;;;;;;19.92;46.56;100192.84;4467004;32;33876;-90
2022/10/13 11:45:51;;;;;;;;;;;;;;;19.73;46.76;100187.53;4455108;32;36432;-89
2022/10/13 11:48:32;;;;;;;;;;;;;;;19.86;47.23;100192.25;4439644;32;33203;-90
2022/10/13 11:51:05;;;;;;;;;;;;;;;19.79;46.79;100181.16;4466591;32;33252;-88
2022/10/13 11:56:34;;;;;;;;;;;;;;;20.14;47.00;100170.81;4447740;32;33955;-93
2022/10/13 11:59:20;;;;;;;;;;;;;;;19.81;46.89;100166.13;4455479;32;34390;-90
2022/10/13 12:01:53;;;;;;;;;;;;;;;19.60;46.51;100166.09;4455352;32;32282;-88
2022/10/13 12:04:24;;;;;;;;;;;;;;;19.81;47.26;100164.38;4466799;32;33252;-89
2022/10/13 12:06:54;;;;;;;;;;;;;;;20.13;47.07;100161.22;4453356;32;33616;-89
2022/10/13 12:09:26;;;;;;;;;;;;;;;19.94;46.21;100158.56;4455920;32;34578;-91
2022/10/13 12:11:56;;;;;;;;;;;;;;;20.12;46.76;100162.13;4457506;32;32600;-91
2022/10/13 12:14:31;;;;;;;;;;;;;;;20.16;46.21;100161.09;4454047;32;34044;-88
2022/10/13 12:17:07;;;;;;;;;;;;;;;20.33;46.39;100155.87;4471652;32;34281;-90
2022/10/13 12:19:54;;;;;;;;;;;;;;;20.15;47.16;100154.09;4469698;32;33978;-90
2022/10/13 12:22:23;;;;;;;;;;;;;;;20.41;45.60;100155.53;4442000;32;34171;-89
2022/10/13 12:25:17;;;;;;;;;;;;;;;20.48;45.34;100154.31;4457300;32;34131;-90
2022/10/13 12:27:46;;;;;;;;;;;;;;;20.61;45.25;100152.87;4454890;32;34236;-89
2022/10/13 12:30:21;;;;;;;;;;;;;;;20.35;44.40;100145.28;4453640;32;34316;-90
2022/10/13 12:32:50;;;;;;;;;;;;;;;20.44;45.45;100143.06;4438665;32;33580;-91
2022/10/13 12:35:28;;;;;;;;;;;;;;;20.26;46.32;100130.75;4453729;32;33286;-89
2022/10/13 12:38:00;;;;;;;;;;;;;;;20.31;44.77;100134.03;4456422;32;35242;-90
2022/10/13 12:40:32;;;;;;;;;;;;;;;20.28;44.95;100138.59;4454958;32;34421;-91
2022/10/13 12:43:09;;;;;;;;;;;;;;;20.26;45.50;100133.38;4397161;32;1427768;-90
2022/10/13 12:45:41;;;;;;;;;;;;;;;20.38;46.08;100124.06;4453658;32;32960;-89
2022/10/13 12:48:25;;;;;;;;;;;;;;;20.32;46.33;100122.56;4466853;32;34431;-90
2022/10/13 12:50:55;;;;;;;;;;;;;;;20.31;46.74;100120.84;4465970;32;35530;-88
2022/10/13 12:53:26;;;;;;;;;;;;;;;20.47;45.97;100126.28;4453257;32;32683;-92
2022/10/13 12:55:59;;;;;;;;;;;;;;;20.53;45.48;100122.47;4453011;32;35377;-89
2022/10/13 12:58:32;;;;;;;;;;;;;;;20.48;45.38;100124.47;4469215;32;34702;-91
2022/10/13 13:01:20;;;;;;;;;;;;;;;20.58;45.38;100123.13;4452324;32;34531;-93
2022/10/13 13:03:55;;;;;;;;;;;;;;;20.74;43.69;100118.00;4468251;32;34445;-90
2022/10/13 13:06:36;;;;;;;;;;;;;;;20.75;44.93;100123.19;4450663;32;33964;-90
2022/10/13 13:09:30;;;;;;;;;;;;;;;20.42;46.09;100123.00;4458465;32;34194;-94
2022/10/13 13:56:30;;;;;;;;;;;;;;;20.75;45.01;100085.41;4229629;33;35028;-92
2022/10/13 14:04:36;;;;;;;;;;;;;;;20.58;45.36;100088.88;4433653;28;20352;-94
2022/10/13 14:07:15;;;;;;;;;;;;;;;20.53;45.27;100077.66;4367526;32;33393;-90
2022/10/13 14:10:09;;;;;;;;;;;;;;;20.46;46.37;100088.53;4364785;32;33384;-93